METAR Formatted Surface Weather Observation
Issued by NWS

Home | Current Version | Previous Version | Text Only | Print | Product List | Glossary On
Versions: 1 2 3 4 5 6 7 8 9 10 11 12 13 14
349
SAUS46 KMTR 271254
MTRBAN
METAR KBAN 271252Z AUTO 27005KT 06/M05 A2997 RMK AO2 SLPNO T00561050
$



USA.gov is the U.S. government's official web portal to all federal, state and local government web resources and services.